.
WxDataArchive / Data Records for 2013-06-19
2013-06-18 June 2013 2013-06-20

Data Records for Wednesday, 19 June 2013

Time	Temp	Chill	HIndex	Humid	Dewpt	 Wind 	HiWind	WindDir	Rain 	Barom 
-----	----	-----	------	-----	-----	------	------	-------	-----	----- 
00:00	63.7	63.7	63.7	66	52.1	0	3	112	0.00	30.025 
00:05	63.7	63.7	63.7	65	51.7	0	1	112	0.00	30.025 
00:10	63.5	63.5	63.5	66	51.9	0	0	---	0.00	30.025 
00:15	63.4	63.4	63.4	67	52.2	0	1	112	0.00	30.024 
00:20	63.1	63.1	63.1	67	52.0	0	1	112	0.00	30.024 
00:25	62.6	62.6	62.6	67	51.5	0	0	---	0.00	30.024 
00:30	62.4	62.4	62.4	68	51.7	0	0	---	0.00	30.037 
00:35	62.1	62.1	62.1	68	51.4	0	0	---	0.00	30.037 
00:40	61.8	61.8	61.8	69	51.5	0	0	---	0.00	30.037 
00:45	61.5	61.5	61.5	69	51.2	0	0	---	0.00	30.039 
00:50	61.3	61.3	61.3	70	51.4	0	0	---	0.00	30.039 
00:55	61.0	61.0	61.0	71	51.5	0	0	---	0.00	30.039 
01:00	60.7	60.7	60.7	71	51.2	0	0	---	0.00	30.042 
01:05	60.4	60.4	60.4	71	50.9	0	0	---	0.00	30.042 
01:10	60.2	60.2	60.2	72	51.1	0	0	---	0.00	30.042 
01:15	60.1	60.1	60.1	72	51.0	0	3	112	0.00	30.037 
01:20	60.2	60.2	60.2	71	50.8	0	2	112	0.00	30.037 
01:25	60.4	60.4	60.4	71	50.9	0	2	112	0.00	30.037 
01:30	60.4	60.4	60.4	72	51.3	0	2	112	0.00	30.037 
01:35	60.2	60.2	60.2	72	51.1	0	3	112	0.00	30.037 
01:40	60.2	60.2	60.2	73	51.5	0	1	112	0.00	30.037 
01:45	60.1	60.1	60.1	73	51.4	0	2	112	0.00	30.036 
01:50	59.9	59.9	59.9	74	51.6	0	2	112	0.00	30.036 
01:55	59.8	59.8	59.8	75	51.9	0	0	---	0.00	30.036 
02:00	59.6	59.6	59.6	75	51.7	0	2	112	0.00	30.036 
02:05	59.5	59.5	59.5	76	51.9	1	2	112	0.00	30.036 
02:10	59.3	59.3	59.3	77	52.1	0	3	112	0.00	30.036 
02:15	59.2	59.2	59.2	77	52.0	0	1	112	0.00	30.038 
02:20	59.0	59.0	59.0	78	52.1	0	0	---	0.00	30.038 
02:25	58.7	58.7	58.7	78	51.9	0	0	---	0.00	30.038 
02:30	58.6	58.6	58.6	79	52.1	0	0	---	0.00	30.039 
02:35	58.3	58.3	58.3	80	52.2	0	0	---	0.00	30.039 
02:40	58.0	58.0	58.0	80	51.9	0	0	---	0.00	30.039 
02:45	57.6	57.6	57.6	79	51.1	0	1	112	0.00	30.046 
02:50	57.5	57.5	57.5	78	50.7	0	0	---	0.00	30.046 
02:55	57.2	57.2	57.2	78	50.4	0	0	---	0.00	30.046 
03:00	56.9	56.9	56.9	77	49.8	0	0	---	0.00	30.050 
03:05	56.7	56.7	56.7	77	49.6	0	0	---	0.00	30.050 
03:10	56.6	56.6	56.6	76	49.1	0	0	---	0.00	30.050 
03:15	56.5	56.5	56.5	76	49.0	0	0	---	0.00	30.054 
03:20	56.3	56.3	56.3	76	48.8	0	0	---	0.00	30.054 
03:25	56.2	56.2	56.2	75	48.4	0	0	---	0.00	30.054 
03:30	56.0	56.0	56.0	75	48.2	0	0	---	0.00	30.058 
03:35	55.9	55.9	55.9	75	48.1	0	0	---	0.00	30.058 
03:40	55.7	55.7	55.7	76	48.3	0	1	112	0.00	30.058 
03:45	55.7	55.7	55.7	76	48.3	0	1	112	0.00	30.058 
03:50	55.7	55.7	55.7	76	48.3	0	0	---	0.00	30.058 
03:55	55.6	55.6	55.6	76	48.2	0	1	112	0.00	30.058 
04:00	55.6	55.6	55.6	75	47.8	0	0	---	0.00	30.054 
04:05	55.4	55.4	55.4	75	47.6	0	0	---	0.00	30.054 
04:10	55.3	55.3	55.3	75	47.5	0	0	---	0.00	30.054 
04:15	55.1	55.1	55.1	76	47.7	0	0	---	0.00	30.056 
04:20	55.1	55.1	55.1	76	47.7	0	0	---	0.00	30.056 
04:25	54.8	54.8	54.8	76	47.4	0	0	---	0.00	30.056 
04:30	54.7	54.7	54.7	76	47.3	0	0	---	0.00	30.058 
04:35	54.5	54.5	54.5	77	47.4	0	0	---	0.00	30.058 
04:40	54.4	54.4	54.4	77	47.3	0	0	---	0.00	30.058 
04:45	54.4	54.4	54.4	77	47.3	0	1	112	0.00	30.059 
04:50	54.2	54.2	54.2	77	47.1	0	0	---	0.00	30.059 
04:55	54.1	54.1	54.1	77	47.0	0	0	---	0.00	30.059 
05:00	53.9	53.9	53.9	77	46.9	0	0	---	0.00	30.063 
05:05	53.9	53.9	53.9	77	46.9	0	0	---	0.00	30.063 
05:10	53.8	53.8	53.8	77	46.8	0	0	---	0.00	30.063 
05:15	53.6	53.6	53.6	77	46.6	0	0	---	0.00	30.064 
05:20	53.5	53.5	53.5	77	46.5	0	0	---	0.00	30.064 
05:25	53.3	53.3	53.3	77	46.3	0	0	---	0.00	30.064 
05:30	53.3	53.3	53.3	77	46.3	0	1	112	0.00	30.074 
05:35	53.3	53.3	53.3	77	46.3	0	0	---	0.00	30.074 
05:40	53.2	53.2	53.2	77	46.2	0	1	112	0.00	30.074 
05:45	53.1	53.1	53.1	77	46.1	0	0	---	0.00	30.075 
05:50	52.9	52.9	52.9	76	45.5	0	0	---	0.00	30.075 
05:55	52.8	52.8	52.8	76	45.4	0	0	---	0.00	30.075 
06:00	52.6	52.6	52.6	76	45.3	0	0	---	0.00	30.078 
06:05	52.6	52.6	52.6	76	45.3	0	0	---	0.00	30.078 
06:10	52.5	52.5	52.5	76	45.2	0	0	---	0.00	30.078 
06:15	52.5	52.5	52.5	76	45.2	0	0	---	0.00	30.090 
06:20	52.5	52.5	52.5	77	45.5	0	0	---	0.00	30.090 
06:25	52.3	52.3	52.3	77	45.3	0	0	---	0.00	30.090 
06:30	52.3	52.3	52.3	77	45.3	0	0	---	0.00	30.097 
06:35	52.3	52.3	52.3	78	45.6	0	0	---	0.00	30.097 
06:40	52.2	52.2	52.2	78	45.5	0	0	---	0.00	30.097 
06:45	52.2	52.2	52.2	78	45.5	0	0	---	0.00	30.099 
06:50	52.3	52.3	52.3	78	45.6	0	0	---	0.00	30.099 
06:55	52.5	52.5	52.5	79	46.2	0	0	---	0.00	30.099 
07:00	52.6	52.6	52.6	78	45.9	0	1	112	0.00	30.103 
07:05	52.8	52.8	52.8	76	45.4	0	1	112	0.00	30.103 
07:10	53.2	53.2	53.2	74	45.1	0	3	112	0.00	30.103 
07:15	53.6	53.6	53.6	72	44.8	0	2	112	0.00	30.107 
07:20	54.1	54.1	54.1	70	44.5	0	2	112	0.00	30.107 
07:25	54.7	54.7	54.7	68	44.3	1	3	112	0.00	30.107 
07:30	55.1	55.1	55.1	67	44.3	1	4	112	0.00	30.109 
07:35	55.9	55.9	55.9	65	44.3	1	3	112	0.00	30.109 
07:40	56.5	56.5	56.5	63	44.1	0	3	112	0.00	30.109 
07:45	57.0	57.0	57.0	63	44.5	0	2	112	0.00	30.109 
07:50	57.5	57.5	57.5	62	44.6	0	3	112	0.00	30.109 
07:55	58.3	58.3	58.3	62	45.3	0	1	112	0.00	30.109 
08:00	58.7	58.7	58.7	59	44.4	1	4	112	0.00	30.110 
08:05	59.0	59.0	59.0	62	46.0	1	4	112	0.00	30.110 
08:10	59.5	59.5	59.5	60	45.6	1	2	112	0.00	30.110 
08:15	59.9	59.9	59.9	59	45.5	1	3	112	0.00	30.113 
08:20	60.2	60.2	60.2	59	45.8	1	4	135	0.00	30.113 
08:25	60.4	60.4	60.4	59	46.0	1	3	135	0.00	30.113 
08:30	60.7	60.7	60.7	58	45.8	1	4	135	0.00	30.119 
08:35	60.9	60.9	60.9	58	46.0	1	5	68	0.00	30.119 
08:40	60.9	60.9	60.9	58	46.0	2	5	90	0.00	30.119 
08:45	61.0	61.0	61.0	60	47.0	1	4	112	0.00	30.120 
08:50	61.6	61.6	61.6	59	47.1	0	2	112	0.00	30.120 
08:55	62.3	62.3	62.3	57	46.9	1	4	112	0.00	30.120 
09:00	62.7	62.7	62.7	58	47.7	0	3	112	0.00	30.122 
09:05	63.2	63.2	63.2	57	47.7	1	2	112	0.00	30.122 
09:10	63.4	63.4	63.4	56	47.4	2	5	90	0.00	30.122 
09:15	63.2	63.2	63.2	58	48.2	2	6	68	0.00	30.135 
09:20	63.2	63.2	63.2	58	48.2	1	6	90	0.00	30.135 
09:25	63.5	63.5	63.5	58	48.5	1	4	90	0.00	30.135 
09:30	64.0	64.0	64.0	58	48.9	1	4	90	0.00	30.135 
09:35	64.0	64.0	64.0	57	48.5	2	6	112	0.00	30.135 
09:40	63.9	63.9	63.9	59	49.3	2	5	90	0.00	30.135 
09:45	64.3	64.3	64.3	59	49.7	1	3	90	0.00	30.136 
09:50	64.3	64.3	64.3	58	49.2	2	7	90	0.00	30.136 
09:55	64.5	64.5	64.5	58	49.4	2	4	90	0.00	30.136 
10:00	64.8	64.8	64.8	57	49.2	1	4	90	0.00	30.134 
10:05	65.2	65.2	65.2	58	50.0	1	5	90	0.00	30.134 
10:10	65.3	65.3	65.3	56	49.2	2	5	90	0.00	30.134 
10:15	65.8	65.8	65.8	58	50.6	1	5	90	0.00	30.127 
10:20	66.3	66.3	66.3	59	51.5	1	3	90	0.00	30.127 
10:25	66.4	66.4	66.4	58	51.2	2	5	68	0.00	30.127 
10:30	66.6	66.6	66.6	57	50.9	1	5	68	0.00	30.128 
10:35	66.9	66.9	66.9	57	51.2	2	6	112	0.00	30.128 
10:40	67.1	67.1	67.1	57	51.3	1	3	112	0.00	30.128 
10:45	68.1	68.1	68.1	55	51.3	0	2	112	0.00	30.128 
10:50	68.9	68.9	68.9	53	51.1	0	2	112	0.00	30.128 
10:55	69.3	69.3	69.3	56	52.9	1	3	112	0.00	30.128 
11:00	69.3	69.3	69.3	54	51.9	1	5	112	0.00	30.127 
11:05	69.4	69.4	69.4	54	52.0	1	4	90	0.00	30.127 
11:10	69.4	69.4	69.4	52	51.0	1	5	90	0.00	30.127 
11:15	69.3	69.3	69.3	54	51.9	1	4	90	0.00	30.130 
11:20	69.4	69.4	69.4	55	52.5	0	2	90	0.00	30.130 
11:25	69.6	69.6	69.6	54	52.2	2	5	90	0.00	30.130 
11:30	70.1	70.1	70.1	55	53.2	1	3	135	0.00	30.127 
11:35	70.4	70.4	70.4	52	51.9	1	3	90	0.00	30.127 
11:40	70.8	70.8	70.8	51	51.8	1	2	90	0.00	30.127 
11:45	70.8	70.8	70.8	50	51.2	1	4	90	0.00	30.127 
11:50	70.9	70.9	70.9	49	50.8	1	4	90	0.00	30.127 
11:55	71.1	71.1	71.1	50	51.5	1	5	90	0.00	30.127 
12:00	71.1	71.1	71.1	50	51.5	2	5	90	0.00	30.126 
12:05	71.5	71.5	71.5	50	51.9	1	4	90	0.00	30.126 
12:10	71.6	71.6	71.6	49	51.4	1	7	90	0.00	30.126 
12:15	71.6	71.6	71.6	49	51.4	2	5	90	0.00	30.121 
12:20	71.8	71.8	71.8	51	52.7	1	2	90	0.00	30.121 
12:25	71.8	71.8	71.8	48	51.0	1	3	90	0.00	30.121 
12:30	71.8	71.8	71.8	48	51.0	1	3	45	0.00	30.126 
12:35	72.3	72.3	72.3	50	52.6	0	2	45	0.00	30.126 
12:40	72.8	72.8	72.8	49	52.5	0	3	22	0.00	30.126 
12:45	73.3	73.3	73.3	48	52.4	1	3	45	0.00	30.122 
12:50	73.5	73.5	73.5	46	51.4	0	2	135	0.00	30.122 
12:55	73.9	73.9	73.9	49	53.5	1	3	135	0.00	30.122 
13:00	73.9	73.9	73.9	45	51.2	1	4	135	0.00	30.117 
13:05	74.0	74.0	74.0	44	50.7	0	2	112	0.00	30.117 
13:10	74.0	74.0	74.0	47	52.5	1	4	112	0.00	30.117 
13:15	73.9	73.9	73.9	48	53.0	2	5	90	0.00	30.109 
13:20	73.5	73.5	73.5	50	53.7	1	3	90	0.00	30.109 
13:25	73.7	73.7	73.7	46	51.6	1	4	90	0.00	30.109 
13:30	73.7	73.7	73.7	45	51.0	2	5	112	0.00	30.110 
13:35	73.9	73.9	73.9	43	50.0	1	3	112	0.00	30.110 
13:40	74.4	74.4	74.4	48	53.4	0	2	112	0.00	30.110 
13:45	74.4	74.4	74.4	46	52.3	1	4	68	0.00	30.108 
13:50	74.4	74.4	74.4	43	50.4	2	5	90	0.00	30.108 
13:55	74.2	74.2	74.2	44	50.9	2	6	90	0.00	30.108 
14:00	74.2	74.2	74.2	46	52.1	1	5	90	0.00	30.109 
14:05	74.4	74.4	74.4	42	49.8	2	4	90	0.00	30.109 
14:10	74.4	74.4	74.4	39	47.8	1	3	135	0.00	30.109 
14:15	74.7	74.7	74.7	42	50.1	1	5	90	0.00	30.105 
14:20	74.6	74.6	74.6	45	51.8	2	6	90	0.00	30.105 
14:25	74.9	74.9	74.9	42	50.2	1	4	90	0.00	30.105 
14:30	74.7	74.7	74.7	38	47.4	2	5	90	0.00	30.104 
14:35	74.7	74.7	74.7	41	49.4	2	5	112	0.00	30.104 
14:40	75.1	75.1	77.6	43	51.1	1	3	22	0.00	30.104 
14:45	75.3	75.3	77.6	42	50.6	1	3	90	0.00	30.102 
14:50	75.4	75.4	77.7	42	50.7	1	3	90	0.00	30.102 
14:55	75.4	75.4	77.7	42	50.7	1	5	90	0.00	30.102 
15:00	75.3	75.3	77.5	39	48.6	1	4	112	0.00	30.096 
15:05	75.8	75.8	77.9	45	52.9	1	3	112	0.00	30.096 
15:10	76.1	76.1	77.9	40	50.0	0	2	112	0.00	30.096 
15:15	76.1	76.1	77.7	37	47.9	1	4	112	0.00	30.092 
15:20	76.3	76.3	78.0	41	50.8	1	3	112	0.00	30.092 
15:25	76.3	76.3	77.8	38	48.8	1	6	112	0.00	30.092 
15:30	76.0	76.0	77.7	38	48.5	1	6	90	0.00	30.091 
15:35	76.3	76.3	77.8	38	48.8	1	3	90	0.00	30.091 
15:40	76.8	76.8	78.2	42	51.9	1	3	90	0.00	30.091 
15:45	76.8	76.8	78.1	40	50.6	1	5	90	0.00	30.089 
15:50	76.5	76.5	77.9	37	48.3	2	5	90	0.00	30.089 
15:55	76.1	76.1	77.7	37	47.9	1	3	90	0.00	30.089 
16:00	76.1	76.1	77.6	35	46.4	2	5	90	0.00	30.088 
16:05	76.5	76.5	77.9	37	48.3	0	2	90	0.00	30.088 
16:10	77.0	77.0	78.3	41	51.5	0	2	90	0.00	30.088 
16:15	76.8	76.8	78.1	40	50.6	2	5	112	0.00	30.089 
16:20	77.0	77.0	78.1	37	48.7	0	3	112	0.00	30.089 
16:25	77.6	77.6	78.4	38	50.0	0	3	112	0.00	30.089 
16:30	77.4	77.4	78.1	35	47.6	2	7	90	0.00	30.086 
16:35	77.0	77.0	78.1	38	49.4	1	4	90	0.00	30.086 
16:40	77.0	77.0	78.0	36	48.0	1	2	90	0.00	30.086 
16:45	77.6	77.6	78.5	39	50.7	0	2	112	0.00	30.087 
16:50	78.1	78.1	78.5	35	48.2	0	1	112	0.00	30.087 
16:55	78.3	78.3	78.3	31	45.2	0	2	112	0.00	30.087 
17:00	78.1	78.1	78.4	33	46.6	1	5	112	0.00	30.078 
17:05	78.1	78.1	78.4	33	46.6	0	3	112	0.00	30.078 
17:10	77.7	77.7	78.4	37	49.3	1	3	112	0.00	30.078 
17:15	77.4	77.4	78.3	37	49.1	1	4	90	0.00	30.076 
17:20	77.0	77.0	78.0	35	47.2	1	4	90	0.00	30.076 
17:25	77.0	77.0	78.0	36	48.0	1	3	90	0.00	30.076 
17:30	77.4	77.4	78.1	35	47.6	1	4	90	0.00	30.069 
17:35	77.4	77.4	78.5	41	51.8	1	3	90	0.00	30.069 
17:40	77.2	77.2	78.1	36	48.2	1	4	90	0.00	30.069 
17:45	77.0	77.0	78.1	38	49.4	1	3	90	0.00	30.066 
17:50	76.7	76.7	78.1	40	50.5	0	2	90	0.00	30.066 
17:55	76.7	76.7	78.0	37	48.4	2	4	90	0.00	30.066 
18:00	76.5	76.5	77.8	36	47.5	0	3	90	0.00	30.063 
18:05	76.5	76.5	78.0	39	49.7	0	2	90	0.00	30.063 
18:10	76.3	76.3	77.8	37	48.1	1	2	90	0.00	30.063 
18:15	76.1	76.1	77.8	38	48.6	1	4	112	0.00	30.063 
18:20	76.0	76.0	77.5	34	45.6	1	3	112	0.00	30.063 
18:25	75.8	75.8	77.6	36	46.9	0	2	112	0.00	30.063 
18:30	75.8	75.8	77.7	39	49.1	0	3	112	0.00	30.060 
18:35	75.6	75.6	77.6	37	47.5	0	2	112	0.00	30.060 
18:40	75.6	75.6	77.6	37	47.5	0	3	112	0.00	30.060 
18:45	75.4	75.4	77.5	38	48.0	1	4	112	0.00	30.061 
18:50	75.4	75.4	77.5	37	47.3	0	3	112	0.00	30.061 
18:55	75.4	75.4	77.4	36	46.6	0	1	112	0.00	30.061 
19:00	75.4	75.4	77.4	36	46.6	0	3	112	0.00	30.064 
19:05	75.4	75.4	77.5	38	48.0	0	1	112	0.00	30.064 
19:10	75.4	75.4	77.6	39	48.7	0	1	112	0.00	30.064 
19:15	75.4	75.4	77.5	38	48.0	0	1	112	0.00	30.060 
19:20	75.4	75.4	77.5	37	47.3	0	1	112	0.00	30.060 
19:25	75.3	75.3	77.5	39	48.6	0	2	112	0.00	30.060 
19:30	75.1	75.1	77.4	38	47.7	0	2	112	0.00	30.063 
19:35	75.1	75.1	77.5	39	48.4	0	1	112	0.00	30.063 
19:40	74.9	74.9	74.9	39	48.3	0	1	112	0.00	30.063 
19:45	74.9	74.9	74.9	39	48.3	0	2	112	0.00	30.065 
19:50	74.7	74.7	74.7	39	48.1	0	2	112	0.00	30.065 
19:55	74.6	74.6	74.6	39	48.0	0	2	112	0.00	30.065 
20:00	74.6	74.6	74.6	40	48.7	0	1	112	0.00	30.070 
20:05	74.4	74.4	74.4	39	47.8	0	2	315	0.00	30.070 
20:10	74.2	74.2	74.2	38	46.9	0	2	315	0.00	30.070 
20:15	74.2	74.2	74.2	39	47.6	0	1	315	0.00	30.071 
20:20	74.0	74.0	74.0	40	48.1	0	0	---	0.00	30.071 
20:25	73.9	73.9	73.9	43	50.0	0	0	---	0.00	30.071 
20:30	73.7	73.7	73.7	42	49.2	0	0	---	0.00	30.075 
20:35	73.5	73.5	73.5	41	48.3	0	0	---	0.00	30.075 
20:40	73.2	73.2	73.2	43	49.3	0	0	---	0.00	30.075 
20:45	73.0	73.0	73.0	45	50.4	0	0	---	0.00	30.081 
20:50	72.7	72.7	72.7	44	49.5	0	0	---	0.00	30.081 
20:55	72.1	72.1	72.1	45	49.6	0	0	---	0.00	30.081 
21:00	71.8	71.8	71.8	45	49.3	0	0	---	0.00	30.083 
21:05	71.3	71.3	71.3	46	49.4	0	0	---	0.00	30.083 
21:10	70.9	70.9	70.9	47	49.7	0	0	---	0.00	30.083 
21:15	70.4	70.4	70.4	48	49.8	0	0	---	0.00	30.085 
21:20	70.1	70.1	70.1	50	50.6	0	0	---	0.00	30.085 
21:25	69.6	69.6	69.6	51	50.7	0	0	---	0.00	30.085 
21:30	69.1	69.1	69.1	53	51.2	0	0	---	0.00	30.090 
21:35	68.8	68.8	68.8	54	51.5	0	0	---	0.00	30.090 
21:40	68.3	68.3	68.3	55	51.5	0	0	---	0.00	30.090 
21:45	67.9	67.9	67.9	57	52.1	0	0	---	0.00	30.092 
21:50	67.6	67.6	67.6	58	52.3	0	0	---	0.00	30.092 
21:55	67.1	67.1	67.1	58	51.8	0	0	---	0.00	30.092 
22:00	66.8	66.8	66.8	59	52.0	0	0	---	0.00	30.096 
22:05	66.3	66.3	66.3	60	52.0	0	0	---	0.00	30.096 
22:10	66.0	66.0	66.0	61	52.2	0	0	---	0.00	30.096 
22:15	65.6	65.6	65.6	62	52.2	0	0	---	0.00	30.102 
22:20	65.5	65.5	65.5	63	52.6	0	0	---	0.00	30.102 
22:25	65.2	65.2	65.2	64	52.7	0	0	---	0.00	30.102 
22:30	65.0	65.0	65.0	64	52.5	0	0	---	0.00	30.106 
22:35	64.8	64.8	64.8	65	52.8	0	0	---	0.00	30.106 
22:40	64.5	64.5	64.5	65	52.5	0	0	---	0.00	30.106 
22:45	64.2	64.2	64.2	67	53.0	0	2	270	0.00	30.117 
22:50	63.9	63.9	63.9	68	53.1	0	0	---	0.00	30.117 
22:55	63.7	63.7	63.7	69	53.3	0	0	---	0.00	30.117 
23:00	63.5	63.5	63.5	69	53.1	0	0	---	0.00	30.120 
23:05	63.4	63.4	63.4	69	53.0	0	0	---	0.00	30.120 
23:10	63.2	63.2	63.2	67	52.1	0	2	270	0.00	30.120 
23:15	63.9	63.9	63.9	63	51.1	1	3	270	0.00	30.119 
23:20	64.5	64.5	64.5	61	50.7	1	2	270	0.00	30.119 
23:25	65.0	65.0	65.0	59	50.3	1	3	90	0.00	30.119 
23:30	65.2	65.2	65.2	59	50.5	1	3	90	0.00	30.115 
23:35	65.2	65.2	65.2	59	50.5	1	3	90	0.00	30.115 
23:40	65.0	65.0	65.0	59	50.3	1	2	90	0.00	30.115 
23:45	64.8	64.8	64.8	59	50.1	1	3	90	0.00	30.117 
23:50	64.7	64.7	64.7	60	50.5	0	2	90	0.00	30.117 
23:55	64.5	64.5	64.5	60	50.3	0	2	90	0.00	30.117 

CoCoRaHS
IN-AL-39
A2 Web Hosting
Creative Commons License
GoDaddy
search engine by freefind advanced

loaded 2018-11-14 00:31:39 • last modified 2010-11-18 10:43:29
Privacy PolicyDisclaimer
• wx.awcolley.com is powered by PmWiki v.2002016 •
• all content (unless otherwise noted) © 2018 A W Colley